Time,TemperatureF,DewpointF,PressureIn,WindDirection,WindDirectionDegrees,WindSpeedMPH,WindSpeedGustMPH,Humidity,HourlyPrecipIn,Conditions,Clouds,dailyrainin,SoftwareType,DateUTC
2015-03-04 00:11:00,42.0,41.0,-100.00,ENE,70,0.0,0.0,96,0.00,,,0.00,,2015-03-04 08:11:00,
2015-03-04 00:22:00,42.0,41.0,-100.00,ENE,70,0.0,0.0,96,0.00,,,0.00,,2015-03-04 08:22:00,
2015-03-04 00:42:00,42.0,41.0,-100.00,ENE,77,2.0,3.0,96,0.00,,,0.00,,2015-03-04 08:42:00,
2015-03-04 00:52:00,42.0,41.0,-100.00,ENE,77,2.0,3.0,96,0.00,,,0.00,,2015-03-04 08:52:00,
2015-03-04 01:11:00,42.0,41.0,-100.00,ENE,77,2.0,3.0,96,0.00,,,0.00,,2015-03-04 09:11:00,
2015-03-04 01:22:00,42.0,41.0,-100.00,ENE,77,1.0,3.0,96,0.00,,,0.00,,2015-03-04 09:22:00,
2015-03-04 01:43:00,42.0,41.0,-100.00,ENE,75,2.0,3.0,96,0.00,,,0.00,,2015-03-04 09:43:00,
2015-03-04 01:54:00,42.0,41.0,-100.00,ENE,72,2.0,4.0,96,0.00,,,0.00,,2015-03-04 09:54:00,
2015-03-04 02:13:00,42.0,41.0,-100.00,ENE,70,2.0,3.0,96,0.00,,,0.00,,2015-03-04 10:13:00,
2015-03-04 02:23:00,42.0,41.0,-100.00,ENE,70,2.0,3.0,96,0.00,,,0.00,,2015-03-04 10:23:00,
2015-03-04 02:43:00,42.0,41.0,-100.00,ENE,70,2.0,3.0,97,0.00,,,0.00,,2015-03-04 10:43:00,
2015-03-04 02:53:00,42.0,41.0,-100.00,ENE,70,2.0,3.0,97,0.00,,,0.00,,2015-03-04 10:53:00,
2015-03-04 03:12:00,42.0,41.0,-100.00,ENE,70,2.0,3.0,97,0.00,,,0.00,,2015-03-04 11:12:00,
2015-03-04 03:43:00,42.0,41.0,-100.00,ENE,70,2.0,3.0,97,0.00,,,0.00,,2015-03-04 11:43:00,
2015-03-04 03:53:00,42.0,41.0,-100.00,ENE,68,2.0,3.0,97,0.00,,,0.00,,2015-03-04 11:53:00,
2015-03-04 04:12:00,42.0,41.0,-100.00,ENE,68,2.0,3.0,97,0.01,,,0.01,,2015-03-04 12:12:00,
2015-03-04 04:22:00,42.0,41.0,-100.00,ENE,66,2.0,3.0,97,0.01,,,0.01,,2015-03-04 12:22:00,
2015-03-04 04:42:00,41.0,40.0,-100.00,ENE,66,2.0,2.0,97,0.01,,,0.01,,2015-03-04 12:42:00,
2015-03-04 04:53:00,41.0,40.0,-100.00,ENE,65,0.0,2.0,97,0.00,,,0.01,,2015-03-04 12:53:00,
2015-03-04 05:12:00,41.0,40.0,-100.00,ENE,66,1.0,2.0,97,0.00,,,0.01,,2015-03-04 13:12:00,
2015-03-04 05:22:00,41.0,40.0,-100.00,ENE,66,0.0,2.0,97,0.00,,,0.01,,2015-03-04 13:22:00,
2015-03-04 05:42:00,41.0,40.0,-100.00,ENE,66,0.0,0.0,97,0.00,,,0.01,,2015-03-04 13:42:00,
2015-03-04 05:52:00,41.0,40.0,-100.00,ENE,68,2.0,3.0,97,0.00,,,0.01,,2015-03-04 13:52:00,
2015-03-04 06:12:00,41.0,40.0,-100.00,ENE,68,2.0,3.0,97,0.00,,,0.01,,2015-03-04 14:12:00,
2015-03-04 06:22:00,41.0,40.0,-100.00,ENE,67,0.0,0.0,98,0.00,,,0.01,,2015-03-04 14:22:00,
2015-03-04 06:42:00,41.0,40.0,-100.00,ENE,67,0.0,0.0,97,0.00,,,0.01,,2015-03-04 14:42:00,
2015-03-04 06:52:00,41.0,40.0,-100.00,ENE,67,0.0,0.0,97,0.00,,,0.01,,2015-03-04 14:52:00,
2015-03-04 07:12:00,41.0,40.0,-100.00,ENE,67,0.0,0.0,97,0.00,,,0.01,,2015-03-04 15:12:00,
2015-03-04 07:22:00,41.0,40.0,-100.00,ENE,68,0.0,3.0,97,0.00,,,0.01,,2015-03-04 15:22:00,